sensor_id;sensor_type;location;lat;lon;timestamp;P1;durP1;ratioP1;P2;durP2;ratioP2
35442;SDS011;21561;55.654;37.592;2022-11-15T00:00:51;2.28;;;0.93;;
35442;SDS011;21561;55.654;37.592;2022-11-15T00:03:19;6.32;;;1.20;;
35442;SDS011;21561;55.654;37.592;2022-11-15T00:05:47;3.33;;;0.65;;
35442;SDS011;21561;55.654;37.592;2022-11-15T00:08:15;4.68;;;1.00;;
35442;SDS011;21561;55.654;37.592;2022-11-15T00:10:42;5.80;;;1.48;;
35442;SDS011;21561;55.654;37.592;2022-11-15T00:13:19;5.32;;;1.27;;
35442;SDS011;21561;55.654;37.592;2022-11-15T00:15:46;6.43;;;1.25;;
35442;SDS011;21561;55.654;37.592;2022-11-15T00:18:13;5.80;;;1.00;;
35442;SDS011;21561;55.654;37.592;2022-11-15T00:20:41;7.03;;;1.10;;
35442;SDS011;21561;55.654;37.592;2022-11-15T00:23:08;6.70;;;1.15;;
35442;SDS011;21561;55.654;37.592;2022-11-15T00:25:35;4.13;;;0.90;;
35442;SDS011;21561;55.654;37.592;2022-11-15T00:28:02;5.53;;;1.15;;
35442;SDS011;21561;55.654;37.592;2022-11-15T00:30:29;5.32;;;1.23;;
35442;SDS011;21561;55.654;37.592;2022-11-15T00:32:56;5.88;;;0.77;;
35442;SDS011;21561;55.654;37.592;2022-11-15T00:35:28;7.07;;;1.10;;
35442;SDS011;21561;55.654;37.592;2022-11-15T00:37:57;6.03;;;1.00;;
35442;SDS011;21561;55.654;37.592;2022-11-15T00:40:24;2.25;;;0.88;;
35442;SDS011;21561;55.654;37.592;2022-11-15T00:42:51;5.22;;;1.05;;
35442;SDS011;21561;55.654;37.592;2022-11-15T00:45:18;4.68;;;1.10;;
35442;SDS011;21561;55.654;37.592;2022-11-15T00:47:45;3.85;;;1.00;;
35442;SDS011;21561;55.654;37.592;2022-11-15T00:50:12;5.47;;;1.17;;
35442;SDS011;21561;55.654;37.592;2022-11-15T00:52:40;7.18;;;1.70;;
35442;SDS011;21561;55.654;37.592;2022-11-15T00:55:09;8.80;;;1.30;;
35442;SDS011;21561;55.654;37.592;2022-11-15T00:57:41;8.57;;;1.50;;
35442;SDS011;21561;55.654;37.592;2022-11-15T01:00:08;5.85;;;1.10;;
35442;SDS011;21561;55.654;37.592;2022-11-15T01:02:36;4.97;;;1.08;;
35442;SDS011;21561;55.654;37.592;2022-11-15T01:05:03;7.85;;;1.77;;
35442;SDS011;21561;55.654;37.592;2022-11-15T01:07:30;7.78;;;1.40;;
35442;SDS011;21561;55.654;37.592;2022-11-15T01:09:57;5.78;;;1.20;;
35442;SDS011;21561;55.654;37.592;2022-11-15T01:12:24;5.25;;;1.05;;
35442;SDS011;21561;55.654;37.592;2022-11-15T01:14:51;6.32;;;1.10;;
35442;SDS011;21561;55.654;37.592;2022-11-15T01:17:18;9.02;;;1.00;;
35442;SDS011;21561;55.654;37.592;2022-11-15T01:19:52;5.57;;;1.08;;
35442;SDS011;21561;55.654;37.592;2022-11-15T01:22:19;7.05;;;1.17;;
35442;SDS011;21561;55.654;37.592;2022-11-15T01:24:46;5.32;;;1.20;;
35442;SDS011;21561;55.654;37.592;2022-11-15T01:27:12;5.63;;;1.13;;
35442;SDS011;21561;55.654;37.592;2022-11-15T01:29:39;4.97;;;1.02;;
35442;SDS011;21561;55.654;37.592;2022-11-15T01:32:06;4.22;;;1.13;;
35442;SDS011;21561;55.654;37.592;2022-11-15T01:34:33;3.63;;;0.93;;
35442;SDS011;21561;55.654;37.592;2022-11-15T01:37:00;5.35;;;1.13;;
35442;SDS011;21561;55.654;37.592;2022-11-15T01:39:27;4.55;;;1.02;;
35442;SDS011;21561;55.654;37.592;2022-11-15T01:41:54;3.65;;;1.10;;
35442;SDS011;21561;55.654;37.592;2022-11-15T01:47:02;7.15;;;1.17;;
35442;SDS011;21561;55.654;37.592;2022-11-15T01:49:32;7.20;;;1.13;;
35442;SDS011;21561;55.654;37.592;2022-11-15T01:52:02;6.65;;;1.27;;
35442;SDS011;21561;55.654;37.592;2022-11-15T01:54:31;5.90;;;1.15;;
35442;SDS011;21561;55.654;37.592;2022-11-15T01:57:03;7.82;;;1.23;;
35442;SDS011;21561;55.654;37.592;2022-11-15T01:59:35;7.20;;;1.23;;
35442;SDS011;21561;55.654;37.592;2022-11-15T02:02:04;4.75;;;1.00;;
35442;SDS011;21561;55.654;37.592;2022-11-15T02:04:32;6.05;;;1.50;;
35442;SDS011;21561;55.654;37.592;2022-11-15T02:07:03;8.23;;;1.48;;
35442;SDS011;21561;55.654;37.592;2022-11-15T02:09:31;4.75;;;1.17;;
35442;SDS011;21561;55.654;37.592;2022-11-15T02:11:58;6.57;;;2.00;;
35442;SDS011;21561;55.654;37.592;2022-11-15T02:14:25;7.57;;;1.45;;
35442;SDS011;21561;55.654;37.592;2022-11-15T02:23:06;6.72;;;1.20;;
35442;SDS011;21561;55.654;37.592;2022-11-15T02:37:20;4.03;;;1.08;;
35442;SDS011;21561;55.654;37.592;2022-11-15T02:40:07;1.60;;;0.70;;
35442;SDS011;21561;55.654;37.592;2022-11-15T02:42:46;8.02;;;1.10;;
35442;SDS011;21561;55.654;37.592;2022-11-15T02:45:43;8.93;;;1.35;;
35442;SDS011;21561;55.654;37.592;2022-11-15T02:48:14;5.78;;;1.20;;
35442;SDS011;21561;55.654;37.592;2022-11-15T02:50:43;4.05;;;0.90;;
35442;SDS011;21561;55.654;37.592;2022-11-15T02:53:11;7.75;;;0.98;;
35442;SDS011;21561;55.654;37.592;2022-11-15T02:55:39;6.93;;;0.88;;
35442;SDS011;21561;55.654;37.592;2022-11-15T03:01:07;8.05;;;1.10;;
35442;SDS011;21561;55.654;37.592;2022-11-15T03:06:24;6.28;;;1.08;;
35442;SDS011;21561;55.654;37.592;2022-11-15T03:09:05;4.60;;;0.95;;
35442;SDS011;21561;55.654;37.592;2022-11-15T03:11:36;8.82;;;0.95;;
35442;SDS011;21561;55.654;37.592;2022-11-15T03:17:19;4.85;;;0.98;;
35442;SDS011;21561;55.654;37.592;2022-11-15T03:19:58;5.13;;;1.15;;
35442;SDS011;21561;55.654;37.592;2022-11-15T03:22:29;3.92;;;1.05;;
35442;SDS011;21561;55.654;37.592;2022-11-15T03:25:04;6.00;;;1.65;;
35442;SDS011;21561;55.654;37.592;2022-11-15T03:30:05;5.53;;;1.20;;
35442;SDS011;21561;55.654;37.592;2022-11-15T03:32:42;6.57;;;0.98;;
35442;SDS011;21561;55.654;37.592;2022-11-15T03:35:26;6.82;;;1.33;;
35442;SDS011;21561;55.654;37.592;2022-11-15T03:38:02;2.35;;;0.90;;
35442;SDS011;21561;55.654;37.592;2022-11-15T03:40:40;5.57;;;1.10;;
35442;SDS011;21561;55.654;37.592;2022-11-15T03:46:05;10.48;;;1.20;;
35442;SDS011;21561;55.654;37.592;2022-11-15T03:48:43;6.43;;;1.38;;
35442;SDS011;21561;55.654;37.592;2022-11-15T03:51:18;7.38;;;1.33;;
35442;SDS011;21561;55.654;37.592;2022-11-15T03:53:46;4.88;;;0.90;;
35442;SDS011;21561;55.654;37.592;2022-11-15T03:56:13;8.85;;;1.38;;
35442;SDS011;21561;55.654;37.592;2022-11-15T03:58:40;5.93;;;1.35;;
35442;SDS011;21561;55.654;37.592;2022-11-15T04:01:07;7.28;;;1.20;;
35442;SDS011;21561;55.654;37.592;2022-11-15T04:03:33;9.45;;;1.10;;
35442;SDS011;21561;55.654;37.592;2022-11-15T04:06:00;7.35;;;1.10;;
35442;SDS011;21561;55.654;37.592;2022-11-15T04:08:27;10.45;;;1.00;;
35442;SDS011;21561;55.654;37.592;2022-11-15T04:10:54;5.85;;;0.98;;
35442;SDS011;21561;55.654;37.592;2022-11-15T04:13:21;6.95;;;1.15;;
35442;SDS011;21561;55.654;37.592;2022-11-15T04:15:48;6.35;;;1.48;;
35442;SDS011;21561;55.654;37.592;2022-11-15T04:18:15;3.67;;;0.73;;
35442;SDS011;21561;55.654;37.592;2022-11-15T04:20:42;7.05;;;1.30;;
35442;SDS011;21561;55.654;37.592;2022-11-15T04:23:27;6.65;;;1.00;;
35442;SDS011;21561;55.654;37.592;2022-11-15T04:26:14;7.18;;;0.90;;
35442;SDS011;21561;55.654;37.592;2022-11-15T04:28:44;9.82;;;1.17;;
35442;SDS011;21561;55.654;37.592;2022-11-15T04:31:30;6.15;;;1.20;;
35442;SDS011;21561;55.654;37.592;2022-11-15T04:33:57;8.63;;;1.10;;
35442;SDS011;21561;55.654;37.592;2022-11-15T04:36:24;6.75;;;1.27;;
35442;SDS011;21561;55.654;37.592;2022-11-15T04:39:09;9.38;;;1.30;;
35442;SDS011;21561;55.654;37.592;2022-11-15T04:41:36;4.50;;;1.10;;
35442;SDS011;21561;55.654;37.592;2022-11-15T04:44:03;6.28;;;1.30;;
35442;SDS011;21561;55.654;37.592;2022-11-15T04:46:30;9.50;;;1.45;;
35442;SDS011;21561;55.654;37.592;2022-11-15T04:48:57;9.45;;;1.10;;
35442;SDS011;21561;55.654;37.592;2022-11-15T04:51:25;8.50;;;1.23;;
35442;SDS011;21561;55.654;37.592;2022-11-15T04:53:52;8.40;;;1.55;;
35442;SDS011;21561;55.654;37.592;2022-11-15T04:56:20;4.25;;;1.10;;
35442;SDS011;21561;55.654;37.592;2022-11-15T04:58:49;5.80;;;1.42;;
35442;SDS011;21561;55.654;37.592;2022-11-15T05:01:16;7.47;;;1.10;;
35442;SDS011;21561;55.654;37.592;2022-11-15T05:03:44;7.93;;;1.50;;
35442;SDS011;21561;55.654;37.592;2022-11-15T05:06:30;6.38;;;1.27;;
35442;SDS011;21561;55.654;37.592;2022-11-15T05:08:57;9.63;;;1.48;;
35442;SDS011;21561;55.654;37.592;2022-11-15T05:11:24;8.30;;;1.27;;
35442;SDS011;21561;55.654;37.592;2022-11-15T05:13:53;7.60;;;1.10;;
35442;SDS011;21561;55.654;37.592;2022-11-15T05:16:19;10.90;;;1.80;;
35442;SDS011;21561;55.654;37.592;2022-11-15T05:18:46;7.43;;;1.25;;
35442;SDS011;21561;55.654;37.592;2022-11-15T05:21:16;5.97;;;1.25;;
35442;SDS011;21561;55.654;37.592;2022-11-15T05:23:43;6.13;;;1.30;;
35442;SDS011;21561;55.654;37.592;2022-11-15T05:26:10;11.63;;;1.40;;
35442;SDS011;21561;55.654;37.592;2022-11-15T05:28:37;6.43;;;1.38;;
35442;SDS011;21561;55.654;37.592;2022-11-15T05:31:08;9.77;;;1.70;;
35442;SDS011;21561;55.654;37.592;2022-11-15T05:33:40;6.70;;;1.33;;
35442;SDS011;21561;55.654;37.592;2022-11-15T05:39:02;16.27;;;2.50;;
35442;SDS011;21561;55.654;37.592;2022-11-15T05:41:34;12.25;;;1.58;;
35442;SDS011;21561;55.654;37.592;2022-11-15T05:44:30;6.93;;;1.50;;
35442;SDS011;21561;55.654;37.592;2022-11-15T05:46:58;7.35;;;1.55;;
35442;SDS011;21561;55.654;37.592;2022-11-15T05:49:27;11.43;;;1.50;;
35442;SDS011;21561;55.654;37.592;2022-11-15T05:51:58;4.68;;;1.02;;
35442;SDS011;21561;55.654;37.592;2022-11-15T05:54:25;8.73;;;1.38;;
35442;SDS011;21561;55.654;37.592;2022-11-15T05:56:52;9.25;;;1.30;;
35442;SDS011;21561;55.654;37.592;2022-11-15T05:59:20;7.65;;;1.60;;
35442;SDS011;21561;55.654;37.592;2022-11-15T06:01:47;8.20;;;1.45;;
35442;SDS011;21561;55.654;37.592;2022-11-15T06:04:14;10.10;;;1.88;;
35442;SDS011;21561;55.654;37.592;2022-11-15T06:06:40;16.02;;;2.00;;
35442;SDS011;21561;55.654;37.592;2022-11-15T06:09:07;12.20;;;1.55;;
35442;SDS011;21561;55.654;37.592;2022-11-15T06:11:34;10.38;;;1.80;;
35442;SDS011;21561;55.654;37.592;2022-11-15T06:14:01;10.45;;;1.98;;
35442;SDS011;21561;55.654;37.592;2022-11-15T06:16:28;9.38;;;1.67;;
35442;SDS011;21561;55.654;37.592;2022-11-15T06:18:55;5.80;;;1.65;;
35442;SDS011;21561;55.654;37.592;2022-11-15T06:21:22;8.88;;;1.50;;
35442;SDS011;21561;55.654;37.592;2022-11-15T06:23:49;6.78;;;1.48;;
35442;SDS011;21561;55.654;37.592;2022-11-15T06:26:16;6.75;;;1.52;;
35442;SDS011;21561;55.654;37.592;2022-11-15T06:28:43;9.27;;;1.77;;
35442;SDS011;21561;55.654;37.592;2022-11-15T06:31:10;12.75;;;2.10;;
35442;SDS011;21561;55.654;37.592;2022-11-15T06:33:38;8.40;;;2.05;;
35442;SDS011;21561;55.654;37.592;2022-11-15T06:36:06;9.63;;;2.38;;
35442;SDS011;21561;55.654;37.592;2022-11-15T06:38:43;6.65;;;1.70;;
35442;SDS011;21561;55.654;37.592;2022-11-15T06:41:11;10.75;;;2.40;;
35442;SDS011;21561;55.654;37.592;2022-11-15T06:43:40;8.20;;;1.48;;
35442;SDS011;21561;55.654;37.592;2022-11-15T06:46:07;9.70;;;1.83;;
35442;SDS011;21561;55.654;37.592;2022-11-15T06:48:34;6.82;;;1.85;;
35442;SDS011;21561;55.654;37.592;2022-11-15T06:51:03;12.07;;;1.70;;
35442;SDS011;21561;55.654;37.592;2022-11-15T06:53:31;10.15;;;2.15;;
35442;SDS011;21561;55.654;37.592;2022-11-15T06:56:02;10.32;;;2.30;;
35442;SDS011;21561;55.654;37.592;2022-11-15T06:58:30;10.90;;;2.22;;
35442;SDS011;21561;55.654;37.592;2022-11-15T07:00:58;9.40;;;1.77;;
35442;SDS011;21561;55.654;37.592;2022-11-15T07:03:26;8.25;;;1.77;;
35442;SDS011;21561;55.654;37.592;2022-11-15T07:05:53;10.93;;;1.52;;
35442;SDS011;21561;55.654;37.592;2022-11-15T07:08:22;12.27;;;2.60;;
35442;SDS011;21561;55.654;37.592;2022-11-15T07:10:50;11.75;;;1.92;;
35442;SDS011;21561;55.654;37.592;2022-11-15T07:13:17;10.52;;;2.00;;
35442;SDS011;21561;55.654;37.592;2022-11-15T07:15:44;9.13;;;1.75;;
35442;SDS011;21561;55.654;37.592;2022-11-15T07:18:10;10.35;;;1.58;;
35442;SDS011;21561;55.654;37.592;2022-11-15T07:20:37;9.52;;;2.10;;
35442;SDS011;21561;55.654;37.592;2022-11-15T07:23:05;10.50;;;1.60;;
35442;SDS011;21561;55.654;37.592;2022-11-15T07:25:32;7.93;;;1.58;;
35442;SDS011;21561;55.654;37.592;2022-11-15T07:27:59;9.05;;;1.88;;
35442;SDS011;21561;55.654;37.592;2022-11-15T07:30:27;12.20;;;1.98;;
35442;SDS011;21561;55.654;37.592;2022-11-15T07:32:58;11.02;;;2.33;;
35442;SDS011;21561;55.654;37.592;2022-11-15T07:35:26;9.20;;;1.92;;
35442;SDS011;21561;55.654;37.592;2022-11-15T07:37:55;11.88;;;1.63;;
35442;SDS011;21561;55.654;37.592;2022-11-15T07:40:24;13.32;;;3.55;;
35442;SDS011;21561;55.654;37.592;2022-11-15T07:42:52;12.90;;;2.10;;
35442;SDS011;21561;55.654;37.592;2022-11-15T07:45:25;15.95;;;2.00;;
35442;SDS011;21561;55.654;37.592;2022-11-15T07:47:52;11.65;;;1.80;;
35442;SDS011;21561;55.654;37.592;2022-11-15T07:50:20;12.95;;;2.00;;
35442;SDS011;21561;55.654;37.592;2022-11-15T07:52:47;12.18;;;2.10;;
35442;SDS011;21561;55.654;37.592;2022-11-15T07:55:14;10.52;;;2.40;;
35442;SDS011;21561;55.654;37.592;2022-11-15T07:57:41;11.45;;;1.92;;
35442;SDS011;21561;55.654;37.592;2022-11-15T08:00:08;12.73;;;2.50;;
35442;SDS011;21561;55.654;37.592;2022-11-15T08:02:35;9.15;;;1.92;;
35442;SDS011;21561;55.654;37.592;2022-11-15T08:05:02;13.32;;;2.40;;
35442;SDS011;21561;55.654;37.592;2022-11-15T08:07:30;11.13;;;2.08;;
35442;SDS011;21561;55.654;37.592;2022-11-15T08:09:57;15.10;;;2.65;;
35442;SDS011;21561;55.654;37.592;2022-11-15T08:12:24;13.05;;;2.75;;
35442;SDS011;21561;55.654;37.592;2022-11-15T08:14:51;9.20;;;2.10;;
35442;SDS011;21561;55.654;37.592;2022-11-15T08:17:18;10.70;;;2.40;;
35442;SDS011;21561;55.654;37.592;2022-11-15T08:19:45;9.75;;;2.20;;
35442;SDS011;21561;55.654;37.592;2022-11-15T08:22:11;17.27;;;2.45;;
35442;SDS011;21561;55.654;37.592;2022-11-15T08:24:38;16.27;;;2.35;;
35442;SDS011;21561;55.654;37.592;2022-11-15T08:27:05;9.95;;;2.17;;
35442;SDS011;21561;55.654;37.592;2022-11-15T08:29:42;7.65;;;1.75;;
35442;SDS011;21561;55.654;37.592;2022-11-15T08:32:10;13.85;;;2.20;;
35442;SDS011;21561;55.654;37.592;2022-11-15T08:34:37;9.77;;;2.00;;
35442;SDS011;21561;55.654;37.592;2022-11-15T08:37:05;9.57;;;2.30;;
35442;SDS011;21561;55.654;37.592;2022-11-15T08:39:32;8.75;;;1.75;;
35442;SDS011;21561;55.654;37.592;2022-11-15T08:41:59;9.68;;;2.00;;
35442;SDS011;21561;55.654;37.592;2022-11-15T08:44:26;10.73;;;2.10;;
35442;SDS011;21561;55.654;37.592;2022-11-15T08:46:52;10.40;;;1.90;;
35442;SDS011;21561;55.654;37.592;2022-11-15T08:49:19;10.35;;;2.40;;
35442;SDS011;21561;55.654;37.592;2022-11-15T08:51:46;9.35;;;2.20;;
35442;SDS011;21561;55.654;37.592;2022-11-15T08:54:13;15.10;;;2.22;;
35442;SDS011;21561;55.654;37.592;2022-11-15T08:56:39;9.52;;;1.65;;
35442;SDS011;21561;55.654;37.592;2022-11-15T08:59:06;11.90;;;2.05;;
35442;SDS011;21561;55.654;37.592;2022-11-15T09:01:35;7.53;;;2.00;;
35442;SDS011;21561;55.654;37.592;2022-11-15T09:04:01;10.90;;;2.53;;
35442;SDS011;21561;55.654;37.592;2022-11-15T09:06:30;10.00;;;1.90;;
35442;SDS011;21561;55.654;37.592;2022-11-15T09:08:57;8.50;;;1.75;;
35442;SDS011;21561;55.654;37.592;2022-11-15T09:11:24;11.02;;;2.15;;
35442;SDS011;21561;55.654;37.592;2022-11-15T09:13:52;8.07;;;1.85;;
35442;SDS011;21561;55.654;37.592;2022-11-15T09:16:19;8.30;;;2.10;;
35442;SDS011;21561;55.654;37.592;2022-11-15T09:18:46;11.40;;;2.08;;
35442;SDS011;21561;55.654;37.592;2022-11-15T09:21:13;10.02;;;1.90;;
35442;SDS011;21561;55.654;37.592;2022-11-15T09:23:40;13.77;;;1.88;;
35442;SDS011;21561;55.654;37.592;2022-11-15T09:26:07;10.80;;;2.28;;
35442;SDS011;21561;55.654;37.592;2022-11-15T09:28:34;7.95;;;1.80;;
35442;SDS011;21561;55.654;37.592;2022-11-15T09:31:03;10.82;;;1.90;;
35442;SDS011;21561;55.654;37.592;2022-11-15T09:33:31;6.90;;;1.70;;
35442;SDS011;21561;55.654;37.592;2022-11-15T09:36:02;12.05;;;2.70;;
35442;SDS011;21561;55.654;37.592;2022-11-15T09:38:31;12.98;;;2.30;;
35442;SDS011;21561;55.654;37.592;2022-11-15T09:49:41;10.85;;;1.85;;
35442;SDS011;21561;55.654;37.592;2022-11-15T09:52:08;9.85;;;1.73;;
35442;SDS011;21561;55.654;37.592;2022-11-15T09:54:38;4.38;;;1.40;;
35442;SDS011;21561;55.654;37.592;2022-11-15T10:03:18;11.65;;;2.00;;
35442;SDS011;21561;55.654;37.592;2022-11-15T10:06:08;7.90;;;1.88;;
35442;SDS011;21561;55.654;37.592;2022-11-15T10:11:49;8.18;;;2.03;;
35442;SDS011;21561;55.654;37.592;2022-11-15T10:24:34;9.75;;;1.77;;
35442;SDS011;21561;55.654;37.592;2022-11-15T10:27:13;11.10;;;2.08;;
35442;SDS011;21561;55.654;37.592;2022-11-15T10:29:50;9.80;;;2.33;;
35442;SDS011;21561;55.654;37.592;2022-11-15T10:32:18;11.65;;;1.70;;
35442;SDS011;21561;55.654;37.592;2022-11-15T10:34:47;10.63;;;2.20;;
35442;SDS011;21561;55.654;37.592;2022-11-15T10:37:26;13.95;;;3.63;;
35442;SDS011;21561;55.654;37.592;2022-11-15T10:40:13;12.23;;;1.88;;
35442;SDS011;21561;55.654;37.592;2022-11-15T10:42:43;15.00;;;2.50;;
35442;SDS011;21561;55.654;37.592;2022-11-15T10:45:27;14.23;;;2.40;;
35442;SDS011;21561;55.654;37.592;2022-11-15T10:50:41;13.23;;;3.03;;
35442;SDS011;21561;55.654;37.592;2022-11-15T10:53:33;9.10;;;1.70;;
35442;SDS011;21561;55.654;37.592;2022-11-15T10:56:08;8.23;;;2.08;;
35442;SDS011;21561;55.654;37.592;2022-11-15T11:04:04;8.13;;;1.98;;
35442;SDS011;21561;55.654;37.592;2022-11-15T11:06:53;9.48;;;2.40;;
35442;SDS011;21561;55.654;37.592;2022-11-15T11:09:34;8.15;;;1.65;;
35442;SDS011;21561;55.654;37.592;2022-11-15T11:12:03;11.93;;;2.38;;
35442;SDS011;21561;55.654;37.592;2022-11-15T11:14:35;8.80;;;2.00;;
35442;SDS011;21561;55.654;37.592;2022-11-15T11:31:43;7.85;;;2.00;;
35442;SDS011;21561;55.654;37.592;2022-11-15T11:37:37;5.90;;;1.58;;
35442;SDS011;21561;55.654;37.592;2022-11-15T11:53:49;9.57;;;2.20;;
35442;SDS011;21561;55.654;37.592;2022-11-15T11:58:53;10.68;;;1.75;;
35442;SDS011;21561;55.654;37.592;2022-11-15T12:01:25;9.88;;;2.15;;
35442;SDS011;21561;55.654;37.592;2022-11-15T12:04:03;7.82;;;1.95;;
35442;SDS011;21561;55.654;37.592;2022-11-15T12:06:51;9.23;;;1.90;;
35442;SDS011;21561;55.654;37.592;2022-11-15T12:17:28;9.40;;;2.00;;
35442;SDS011;21561;55.654;37.592;2022-11-15T12:20:13;8.05;;;2.00;;
35442;SDS011;21561;55.654;37.592;2022-11-15T12:22:49;10.70;;;1.83;;
35442;SDS011;21561;55.654;37.592;2022-11-15T12:25:48;11.93;;;2.03;;
35442;SDS011;21561;55.654;37.592;2022-11-15T12:30:56;10.68;;;1.98;;
35442;SDS011;21561;55.654;37.592;2022-11-15T12:36:00;8.15;;;2.13;;
35442;SDS011;21561;55.654;37.592;2022-11-15T12:41:32;10.45;;;2.88;;
35442;SDS011;21561;55.654;37.592;2022-11-15T12:44:00;13.40;;;2.40;;
35442;SDS011;21561;55.654;37.592;2022-11-15T12:49:02;10.45;;;2.00;;
35442;SDS011;21561;55.654;37.592;2022-11-15T13:02:18;11.63;;;2.28;;
35442;SDS011;21561;55.654;37.592;2022-11-15T13:04:47;10.07;;;2.20;;
35442;SDS011;21561;55.654;37.592;2022-11-15T13:23:27;9.02;;;2.30;;
35442;SDS011;21561;55.654;37.592;2022-11-15T13:25:46;11.38;;;2.47;;
35442;SDS011;21561;55.654;37.592;2022-11-15T13:31:18;16.98;;;2.63;;
35442;SDS011;21561;55.654;37.592;2022-11-15T13:33:59;12.48;;;2.80;;
35442;SDS011;21561;55.654;37.592;2022-11-15T13:37:12;14.18;;;3.13;;
35442;SDS011;21561;55.654;37.592;2022-11-15T13:39:57;21.33;;;3.78;;
35442;SDS011;21561;55.654;37.592;2022-11-15T13:42:42;16.30;;;3.72;;
35442;SDS011;21561;55.654;37.592;2022-11-15T13:45:13;17.40;;;4.22;;
35442;SDS011;21561;55.654;37.592;2022-11-15T13:47:41;16.10;;;3.95;;
35442;SDS011;21561;55.654;37.592;2022-11-15T13:50:12;20.20;;;4.18;;
35442;SDS011;21561;55.654;37.592;2022-11-15T13:52:40;23.02;;;5.20;;
35442;SDS011;21561;55.654;37.592;2022-11-15T13:55:11;18.20;;;4.68;;
35442;SDS011;21561;55.654;37.592;2022-11-15T13:57:44;18.42;;;4.70;;
35442;SDS011;21561;55.654;37.592;2022-11-15T14:00:25;19.20;;;5.10;;
35442;SDS011;21561;55.654;37.592;2022-11-15T14:02:56;19.13;;;5.72;;
35442;SDS011;21561;55.654;37.592;2022-11-15T14:05:31;23.40;;;7.38;;
35442;SDS011;21561;55.654;37.592;2022-11-15T14:10:34;25.00;;;7.75;;
35442;SDS011;21561;55.654;37.592;2022-11-15T14:13:10;25.75;;;8.00;;
35442;SDS011;21561;55.654;37.592;2022-11-15T14:15:53;25.15;;;8.18;;
35442;SDS011;21561;55.654;37.592;2022-11-15T14:18:40;28.55;;;9.68;;
35442;SDS011;21561;55.654;37.592;2022-11-15T14:21:12;28.63;;;8.52;;
35442;SDS011;21561;55.654;37.592;2022-11-15T14:23:40;27.48;;;8.30;;
35442;SDS011;21561;55.654;37.592;2022-11-15T14:26:10;20.90;;;6.28;;
35442;SDS011;21561;55.654;37.592;2022-11-15T14:28:52;20.02;;;6.20;;
35442;SDS011;21561;55.654;37.592;2022-11-15T14:31:18;21.20;;;5.82;;
35442;SDS011;21561;55.654;37.592;2022-11-15T14:33:47;21.23;;;5.82;;
35442;SDS011;21561;55.654;37.592;2022-11-15T14:36:15;17.65;;;4.72;;
35442;SDS011;21561;55.654;37.592;2022-11-15T14:38:44;15.98;;;3.90;;
35442;SDS011;21561;55.654;37.592;2022-11-15T14:41:17;16.58;;;3.65;;
35442;SDS011;21561;55.654;37.592;2022-11-15T14:43:51;17.35;;;3.30;;
35442;SDS011;21561;55.654;37.592;2022-11-15T14:46:19;11.18;;;3.03;;
35442;SDS011;21561;55.654;37.592;2022-11-15T14:48:46;15.93;;;3.17;;
35442;SDS011;21561;55.654;37.592;2022-11-15T14:51:13;14.68;;;3.90;;
35442;SDS011;21561;55.654;37.592;2022-11-15T14:53:42;14.77;;;3.80;;
35442;SDS011;21561;55.654;37.592;2022-11-15T14:56:11;22.80;;;4.38;;
35442;SDS011;21561;55.654;37.592;2022-11-15T14:58:38;17.33;;;3.92;;
35442;SDS011;21561;55.654;37.592;2022-11-15T15:01:10;14.27;;;4.30;;
35442;SDS011;21561;55.654;37.592;2022-11-15T15:03:40;16.52;;;3.95;;
35442;SDS011;21561;55.654;37.592;2022-11-15T15:06:07;17.38;;;3.85;;
35442;SDS011;21561;55.654;37.592;2022-11-15T15:08:42;23.95;;;8.20;;
35442;SDS011;21561;55.654;37.592;2022-11-15T15:11:13;21.38;;;5.43;;
35442;SDS011;21561;55.654;37.592;2022-11-15T15:13:45;16.83;;;4.45;;
35442;SDS011;21561;55.654;37.592;2022-11-15T15:16:11;16.83;;;4.53;;
35442;SDS011;21561;55.654;37.592;2022-11-15T15:18:38;16.83;;;4.45;;
35442;SDS011;21561;55.654;37.592;2022-11-15T15:21:20;14.20;;;3.97;;
35442;SDS011;21561;55.654;37.592;2022-11-15T15:23:48;14.48;;;4.20;;
35442;SDS011;21561;55.654;37.592;2022-11-15T15:26:15;17.80;;;4.32;;
35442;SDS011;21561;55.654;37.592;2022-11-15T15:28:42;19.88;;;4.88;;
35442;SDS011;21561;55.654;37.592;2022-11-15T15:31:09;20.92;;;5.18;;
35442;SDS011;21561;55.654;37.592;2022-11-15T15:33:36;23.35;;;5.15;;
35442;SDS011;21561;55.654;37.592;2022-11-15T15:36:03;18.13;;;5.72;;
35442;SDS011;21561;55.654;37.592;2022-11-15T15:38:30;23.73;;;6.18;;
35442;SDS011;21561;55.654;37.592;2022-11-15T15:40:58;18.60;;;5.80;;
35442;SDS011;21561;55.654;37.592;2022-11-15T15:43:28;19.05;;;6.22;;
35442;SDS011;21561;55.654;37.592;2022-11-15T15:45:55;19.80;;;5.30;;
35442;SDS011;21561;55.654;37.592;2022-11-15T15:48:21;21.77;;;5.88;;
35442;SDS011;21561;55.654;37.592;2022-11-15T15:50:48;24.48;;;6.53;;
35442;SDS011;21561;55.654;37.592;2022-11-15T15:53:15;23.00;;;6.15;;
35442;SDS011;21561;55.654;37.592;2022-11-15T15:55:43;20.55;;;6.50;;
35442;SDS011;21561;55.654;37.592;2022-11-15T15:58:10;20.05;;;6.90;;
35442;SDS011;21561;55.654;37.592;2022-11-15T16:00:37;21.40;;;6.50;;
35442;SDS011;21561;55.654;37.592;2022-11-15T16:03:05;22.08;;;6.85;;
35442;SDS011;21561;55.654;37.592;2022-11-15T16:05:31;21.05;;;7.10;;
35442;SDS011;21561;55.654;37.592;2022-11-15T16:07:59;24.10;;;6.97;;
35442;SDS011;21561;55.654;37.592;2022-11-15T16:10:27;23.80;;;6.32;;
35442;SDS011;21561;55.654;37.592;2022-11-15T16:12:56;20.50;;;6.47;;
35442;SDS011;21561;55.654;37.592;2022-11-15T16:15:24;19.55;;;6.18;;
35442;SDS011;21561;55.654;37.592;2022-11-15T16:17:54;21.52;;;6.75;;
35442;SDS011;21561;55.654;37.592;2022-11-15T16:23:03;19.92;;;7.00;;
35442;SDS011;21561;55.654;37.592;2022-11-15T16:25:45;23.60;;;6.25;;
35442;SDS011;21561;55.654;37.592;2022-11-15T16:30:58;22.10;;;6.50;;
35442;SDS011;21561;55.654;37.592;2022-11-15T16:33:30;21.15;;;7.05;;
35442;SDS011;21561;55.654;37.592;2022-11-15T16:35:58;23.33;;;7.32;;
35442;SDS011;21561;55.654;37.592;2022-11-15T16:38:25;20.42;;;7.03;;
35442;SDS011;21561;55.654;37.592;2022-11-15T16:40:52;20.85;;;6.75;;
35442;SDS011;21561;55.654;37.592;2022-11-15T16:43:19;19.85;;;6.15;;
35442;SDS011;21561;55.654;37.592;2022-11-15T16:45:46;21.23;;;7.10;;
35442;SDS011;21561;55.654;37.592;2022-11-15T16:48:18;19.90;;;5.80;;
35442;SDS011;21561;55.654;37.592;2022-11-15T16:50:45;18.77;;;6.15;;
35442;SDS011;21561;55.654;37.592;2022-11-15T16:53:12;22.33;;;6.18;;
35442;SDS011;21561;55.654;37.592;2022-11-15T16:55:39;19.13;;;5.95;;
35442;SDS011;21561;55.654;37.592;2022-11-15T16:58:07;16.90;;;5.63;;
35442;SDS011;21561;55.654;37.592;2022-11-15T17:00:35;18.35;;;4.97;;
35442;SDS011;21561;55.654;37.592;2022-11-15T17:03:02;16.60;;;5.25;;
35442;SDS011;21561;55.654;37.592;2022-11-15T17:05:29;19.05;;;5.53;;
35442;SDS011;21561;55.654;37.592;2022-11-15T17:07:55;18.30;;;5.38;;
35442;SDS011;21561;55.654;37.592;2022-11-15T17:10:23;18.30;;;5.80;;
35442;SDS011;21561;55.654;37.592;2022-11-15T17:12:51;17.58;;;5.40;;
35442;SDS011;21561;55.654;37.592;2022-11-15T17:15:20;15.95;;;4.50;;
35442;SDS011;21561;55.654;37.592;2022-11-15T17:17:51;14.90;;;4.63;;
35442;SDS011;21561;55.654;37.592;2022-11-15T17:20:20;17.15;;;5.32;;
35442;SDS011;21561;55.654;37.592;2022-11-15T17:22:49;14.13;;;4.53;;
35442;SDS011;21561;55.654;37.592;2022-11-15T17:25:17;14.55;;;4.68;;
35442;SDS011;21561;55.654;37.592;2022-11-15T17:27:44;17.33;;;4.72;;
35442;SDS011;21561;55.654;37.592;2022-11-15T17:30:12;18.63;;;5.15;;